Circle Line Brooklyn — WDE8160 — position and weather

sailwx.info

Track history (hours):
 
Tides and Currents Weather Stations Pressure Air Temp Water Temp Dewpoint Dewpoint Depression Visibility Wind Speed Wind Dir Waves Ship Positions

Circle Line Brooklyn

Owner: Circle Line Sight Seeing Yachts Inc., New York, NY. More information available from US FCC via Universal Licensing System and Coast Guard Vessel Documentation Center.

Last reported at 2017-Mar-24 20:33 UTC. Time now 2017-Mar-25 11:43 UTC.
Position N 40°42' W 074°00'.

MMSI: 367402250.

Date/timePositionNaut miles runAvg speedWind from/ knotsBaromVisibWave heightAir tempDewpointWater temp
2017-Mar-24 20:33N 40°42' W 074°00'4 3.8
2017-Mar-24 19:33N 40°46' W 074°00'0 0.0
2017-Mar-24 18:33N 40°46' W 074°00'4 4.5
2017-Mar-24 17:33N 40°41' W 074°01'4 4.5
2017-Mar-24 16:33N 40°46' W 074°00'0 0.0
2017-Mar-24 15:33N 40°46' W 074°00'0 0.0
2017-Mar-24 14:33N 40°46' W 074°00'0 0.0
2017-Mar-23 21:23N 40°46' W 074°00'4 4.8
2017-Mar-23 20:33N 40°42' W 074°01'4 4.0
2017-Mar-23 19:33N 40°46' W 074°00'0 0.1
2017-Mar-23 18:33N 40°46' W 074°00'5 4.6
2017-Mar-23 17:33N 40°41' W 074°01'5 4.5
2017-Mar-23 16:33N 40°46' W 074°00'0 0.0
2017-Mar-23 15:33N 40°46' W 074°00'0 0.0
2017-Mar-23 14:33N 40°46' W 074°00'3 0.2
2017-Mar-23 00:33N 40°43' W 074°01'1 1.4
2017-Mar-22 23:33N 40°42' W 074°01'4 4.1
2017-Mar-22 22:33N 40°46' W 074°00'0 0.0
2017-Mar-22 21:33N 40°46' W 074°00'0 0.0
2017-Mar-22 20:33N 40°46' W 074°00'4 2.1
2017-Mar-22 18:34N 40°42' W 074°01'4 4.1
2017-Mar-22 17:33N 40°46' W 074°00'0 0.0
2017-Mar-22 16:33N 40°46' W 074°00'2 1.7
2017-Mar-22 15:08N 40°46' W 073°57'5 8.8
2017-Mar-22 14:33N 40°42' W 074°01'4 3.9
2017-Mar-22 13:31N 40°46' W 074°00'3 0.2
2017-Mar-21 20:33N 40°42' W 073°60'3 3.4
2017-Mar-21 19:33N 40°46' W 074°00'0 0.0
2017-Mar-21 18:33N 40°46' W 074°00'7 6.8
2017-Mar-21 17:34N 40°39' W 074°02'7 6.7
2017-Mar-21 16:34N 40°46' W 074°00'3 2.0
2017-Mar-21 15:11N 40°46' W 073°57'710.7
2017-Mar-21 14:33N 40°41' W 074°02'5 4.6
2017-Mar-21 13:31N 40°46' W 074°00'0 0.0
2017-Mar-21 12:31N 40°46' W 074°00'4 0.2
2017-Mar-20 20:33N 40°42' W 074°01'4 4.0
2017-Mar-20 19:33N 40°46' W 074°00'0 0.0
2017-Mar-20 18:33N 40°46' W 074°00'4 4.4
2017-Mar-20 17:33N 40°41' W 074°00'4 4.3
2017-Mar-20 16:33N 40°46' W 074°00'0 0.0
2017-Mar-20 15:33N 40°46' W 074°00'0 0.0
2017-Mar-20 14:33N 40°46' W 074°00'0 0.0
2017-Mar-20 13:31N 40°46' W 074°00'3 0.2
2017-Mar-20 00:33N 40°43' W 074°02'2 2.3
2017-Mar-19 23:33N 40°42' W 073°59'4 3.4
2017-Mar-19 22:32N 40°46' W 074°00'0 0.0
2017-Mar-19 21:32N 40°46' W 074°00'0 0.0
2017-Mar-19 20:32N 40°46' W 074°00'5 2.4
2017-Mar-19 18:34N 40°41' W 074°02'5 4.5
2017-Mar-19 17:32N 40°46' W 074°00'0 0.0
2017-Mar-19 16:34N 40°46' W 074°00'5 3.8
2017-Mar-19 15:21N 40°49' W 073°56'912.0
2017-Mar-19 14:33N 40°41' W 074°03'5 4.8
2017-Mar-19 13:32N 40°46' W 074°00'0 0.0
2017-Mar-19 02:18N 40°46' W 074°00'3 4.2
2017-Mar-19 01:33N 40°43' W 073°58'2 2.3
2017-Mar-19 00:34N 40°44' W 074°01'2 2.2
2017-Mar-18 23:31N 40°46' W 074°00'0 0.0
2017-Mar-18 22:31N 40°46' W 074°00'0 0.0
2017-Mar-18 21:31N 40°46' W 074°00'0 0.0
2017-Mar-18 20:31N 40°46' W 074°00'2 1.7
2017-Mar-18 19:05N 40°46' W 073°57'611.5
2017-Mar-18 18:33N 40°41' W 074°02'5 4.6
2017-Mar-18 17:33N 40°46' W 074°00'0 0.0
2017-Mar-18 16:33N 40°46' W 074°00'5 2.4
2017-Mar-18 14:33N 40°41' W 074°02'5 4.5
2017-Mar-18 13:31N 40°46' W 074°00'0 0.0
2017-Mar-18 02:33N 40°46' W 074°00'3 2.9
2017-Mar-18 01:33N 40°43' W 074°01'2 1.7
2017-Mar-18 00:33N 40°42' W 074°02'5 4.4
2017-Mar-17 23:32N 40°46' W 074°00'0 0.0
2017-Mar-17 22:32N 40°46' W 074°00'0 0.0
2017-Mar-17 21:32N 40°46' W 074°00'0 0.0
2017-Mar-17 20:32N 40°46' W 074°00'0 0.0
2017-Mar-17 19:32N 40°46' W 074°00'0 0.0
2017-Mar-17 18:32N 40°46' W 074°00'0 0.0
2017-Mar-17 17:32N 40°46' W 074°00'0 0.0
2017-Mar-17 16:32N 40°46' W 074°00'2 2.0
2017-Mar-17 15:33N 40°44' W 074°01'2 1.9
2017-Mar-17 14:33N 40°46' W 074°00'0 0.0
2017-Mar-17 13:33N 40°46' W 074°00'3 0.2
2017-Mar-17 00:33N 40°43' W 074°02'2 2.5
2017-Mar-16 23:33N 40°43' W 073°58'3 3.4
2017-Mar-16 22:33N 40°46' W 074°00'0 0.0
2017-Mar-16 21:30N 40°46' W 074°00'0 0.0
2017-Mar-16 20:33N 40°46' W 074°00'2 1.7
2017-Mar-16 19:08N 40°46' W 073°57'611.0
2017-Mar-16 18:33N 40°41' W 074°02'5 4.9
2017-Mar-16 17:33N 40°46' W 074°00'0 0.0
2017-Mar-16 16:33N 40°46' W 074°00'5 2.5
2017-Mar-16 14:33N 40°41' W 074°02'5 4.8
2017-Mar-16 13:32N 40°46' W 074°00'0 0.0
2017-Mar-16 12:32N 40°46' W 074°00'3 0.2
2017-Mar-15 20:33N 40°42' W 073°60'3 3.5
2017-Mar-15 19:33N 40°46' W 074°00'0 0.0
2017-Mar-15 18:33N 40°46' W 074°00'4 4.4
2017-Mar-15 17:33N 40°41' W 074°01'4 4.3
2017-Mar-15 16:33N 40°46' W 074°00'0 0.0
2017-Mar-15 15:32N 40°46' W 074°00'0 0.0
2017-Mar-15 14:33N 40°46' W 074°00'0 0.0
2017-Mar-15 13:33N 40°46' W 074°00'0 0.0
2017-Mar-15 12:33N 40°46' W 074°00'0 0.0
2017-Mar-15 11:33N 40°46' W 074°00'  
Track history (hours):
 
Tides and Currents Weather Stations Pressure Air Temp Water Temp Dewpoint Dewpoint Depression Visibility Wind Speed Wind Dir Waves Ship Positions

Circle Line Brooklyn

Owner: Circle Line Sight Seeing Yachts Inc., New York, NY. More information available from US FCC via Universal Licensing System and Coast Guard Vessel Documentation Center.

Last reported at 2017-Mar-24 20:33 UTC. Time now 2017-Mar-25 11:43 UTC.
Position N 40°42' W 074°00'.

MMSI: 367402250.

Date/timePositionNaut miles runAvg speedWind from/ knotsBaromVisibWave heightAir tempDewpointWater temp
2017-Mar-24 20:33N 40°42' W 074°00'4 3.8
2017-Mar-24 19:33N 40°46' W 074°00'0 0.0
2017-Mar-24 18:33N 40°46' W 074°00'4 4.5
2017-Mar-24 17:33N 40°41' W 074°01'4 4.5
2017-Mar-24 16:33N 40°46' W 074°00'0 0.0
2017-Mar-24 15:33N 40°46' W 074°00'0 0.0
2017-Mar-24 14:33N 40°46' W 074°00'0 0.0
2017-Mar-23 21:23N 40°46' W 074°00'4 4.8
2017-Mar-23 20:33N 40°42' W 074°01'4 4.0
2017-Mar-23 19:33N 40°46' W 074°00'0 0.1
2017-Mar-23 18:33N 40°46' W 074°00'5 4.6
2017-Mar-23 17:33N 40°41' W 074°01'5 4.5
2017-Mar-23 16:33N 40°46' W 074°00'0 0.0
2017-Mar-23 15:33N 40°46' W 074°00'0 0.0
2017-Mar-23 14:33N 40°46' W 074°00'3 0.2
2017-Mar-23 00:33N 40°43' W 074°01'1 1.4
2017-Mar-22 23:33N 40°42' W 074°01'4 4.1
2017-Mar-22 22:33N 40°46' W 074°00'0 0.0
2017-Mar-22 21:33N 40°46' W 074°00'0 0.0
2017-Mar-22 20:33N 40°46' W 074°00'4 2.1
2017-Mar-22 18:34N 40°42' W 074°01'4 4.1
2017-Mar-22 17:33N 40°46' W 074°00'0 0.0
2017-Mar-22 16:33N 40°46' W 074°00'2 1.7
2017-Mar-22 15:08N 40°46' W 073°57'5 8.8
2017-Mar-22 14:33N 40°42' W 074°01'4 3.9
2017-Mar-22 13:31N 40°46' W 074°00'3 0.2
2017-Mar-21 20:33N 40°42' W 073°60'3 3.4
2017-Mar-21 19:33N 40°46' W 074°00'0 0.0
2017-Mar-21 18:33N 40°46' W 074°00'7 6.8
2017-Mar-21 17:34N 40°39' W 074°02'7 6.7
2017-Mar-21 16:34N 40°46' W 074°00'3 2.0
2017-Mar-21 15:11N 40°46' W 073°57'710.7
2017-Mar-21 14:33N 40°41' W 074°02'5 4.6
2017-Mar-21 13:31N 40°46' W 074°00'0 0.0
2017-Mar-21 12:31N 40°46' W 074°00'4 0.2
2017-Mar-20 20:33N 40°42' W 074°01'4 4.0
2017-Mar-20 19:33N 40°46' W 074°00'0 0.0
2017-Mar-20 18:33N 40°46' W 074°00'4 4.4
2017-Mar-20 17:33N 40°41' W 074°00'4 4.3
2017-Mar-20 16:33N 40°46' W 074°00'0 0.0
2017-Mar-20 15:33N 40°46' W 074°00'0 0.0
2017-Mar-20 14:33N 40°46' W 074°00'0 0.0
2017-Mar-20 13:31N 40°46' W 074°00'3 0.2
2017-Mar-20 00:33N 40°43' W 074°02'2 2.3
2017-Mar-19 23:33N 40°42' W 073°59'4 3.4
2017-Mar-19 22:32N 40°46' W 074°00'0 0.0
2017-Mar-19 21:32N 40°46' W 074°00'0 0.0
2017-Mar-19 20:32N 40°46' W 074°00'5 2.4
2017-Mar-19 18:34N 40°41' W 074°02'5 4.5
2017-Mar-19 17:32N 40°46' W 074°00'0 0.0
2017-Mar-19 16:34N 40°46' W 074°00'5 3.8
2017-Mar-19 15:21N 40°49' W 073°56'912.0
2017-Mar-19 14:33N 40°41' W 074°03'5 4.8
2017-Mar-19 13:32N 40°46' W 074°00'0 0.0
2017-Mar-19 02:18N 40°46' W 074°00'3 4.2
2017-Mar-19 01:33N 40°43' W 073°58'2 2.3
2017-Mar-19 00:34N 40°44' W 074°01'2 2.2
2017-Mar-18 23:31N 40°46' W 074°00'0 0.0
2017-Mar-18 22:31N 40°46' W 074°00'0 0.0
2017-Mar-18 21:31N 40°46' W 074°00'0 0.0
2017-Mar-18 20:31N 40°46' W 074°00'2 1.7
2017-Mar-18 19:05N 40°46' W 073°57'611.5
2017-Mar-18 18:33N 40°41' W 074°02'5 4.6
2017-Mar-18 17:33N 40°46' W 074°00'0 0.0
2017-Mar-18 16:33N 40°46' W 074°00'5 2.4
2017-Mar-18 14:33N 40°41' W 074°02'5 4.5
2017-Mar-18 13:31N 40°46' W 074°00'0 0.0
2017-Mar-18 02:33N 40°46' W 074°00'3 2.9
2017-Mar-18 01:33N 40°43' W 074°01'2 1.7
2017-Mar-18 00:33N 40°42' W 074°02'5 4.4
2017-Mar-17 23:32N 40°46' W 074°00'0 0.0
2017-Mar-17 22:32N 40°46' W 074°00'0 0.0
2017-Mar-17 21:32N 40°46' W 074°00'0 0.0
2017-Mar-17 20:32N 40°46' W 074°00'0 0.0
2017-Mar-17 19:32N 40°46' W 074°00'0 0.0
2017-Mar-17 18:32N 40°46' W 074°00'0 0.0
2017-Mar-17 17:32N 40°46' W 074°00'0 0.0
2017-Mar-17 16:32N 40°46' W 074°00'2 2.0
2017-Mar-17 15:33N 40°44' W 074°01'2 1.9
2017-Mar-17 14:33N 40°46' W 074°00'0 0.0
2017-Mar-17 13:33N 40°46' W 074°00'3 0.2
2017-Mar-17 00:33N 40°43' W 074°02'2 2.5
2017-Mar-16 23:33N 40°43' W 073°58'3 3.4
2017-Mar-16 22:33N 40°46' W 074°00'0 0.0
2017-Mar-16 21:30N 40°46' W 074°00'0 0.0
2017-Mar-16 20:33N 40°46' W 074°00'2 1.7
2017-Mar-16 19:08N 40°46' W 073°57'611.0
2017-Mar-16 18:33N 40°41' W 074°02'5 4.9
2017-Mar-16 17:33N 40°46' W 074°00'0 0.0
2017-Mar-16 16:33N 40°46' W 074°00'5 2.5
2017-Mar-16 14:33N 40°41' W 074°02'5 4.8
2017-Mar-16 13:32N 40°46' W 074°00'0 0.0
2017-Mar-16 12:32N 40°46' W 074°00'3 0.2
2017-Mar-15 20:33N 40°42' W 073°60'3 3.5
2017-Mar-15 19:33N 40°46' W 074°00'0 0.0
2017-Mar-15 18:33N 40°46' W 074°00'4 4.4
2017-Mar-15 17:33N 40°41' W 074°01'4 4.3
2017-Mar-15 16:33N 40°46' W 074°00'0 0.0
2017-Mar-15 15:32N 40°46' W 074°00'0 0.0
2017-Mar-15 14:33N 40°46' W 074°00'0 0.0
2017-Mar-15 13:33N 40°46' W 074°00'0 0.0
2017-Mar-15 12:33N 40°46' W 074°00'0 0.0
2017-Mar-15 11:33N 40°46' W 074°00'  

Dump ship's entire track history